Nine-0-nine — WDF7816 — position and weather

sailwx.info

Track history (hours):
 
Tides and Currents Weather Stations Pressure Air Temp Water Temp Dewpoint Dewpoint Depression Visibility Wind Speed Wind Dir Waves Ship Positions

Nine-0-nine

Owner: Warn, Mike, Aurora, OR. More information available from US FCC via Universal Licensing System and Coast Guard Vessel Documentation Center.

Last reported at 2017-Nov-30 23:54 UTC. Time now 2018-Feb-20 21:36 UTC.
Position N 33°25' W 117°46'.
Warning: this ship's position is months out of date.

Type: Ship. MMSI: 366678000.

Date/timePositionNaut miles runAvg speedWind from/ knotsBaromVisibWave heightAir tempDewpointWater temp
2017-Nov-30 23:54N 33°25' W 117°46'410.9
2017-Nov-30 23:30N 33°21' W 117°44'510.9
2017-Nov-30 23:00N 33°16' W 117°40'510.9
2017-Nov-30 22:30N 33°11' W 117°38'510.8
2017-Nov-30 22:00N 33°07' W 117°34'510.5
2017-Nov-30 21:31N 33°02' W 117°31'610.4
2017-Nov-30 20:58N 32°57' W 117°28'510.4
2017-Nov-30 20:30N 32°53' W 117°26'510.2
2017-Nov-30 20:01N 32°49' W 117°23'  
2017-Nov-27 17:59N 32°45' W 117°20'612.8
2017-Nov-27 17:30N 32°51' W 117°24'712.6
2017-Nov-27 16:59N 32°56' W 117°28'612.7
2017-Nov-27 16:29N 33°02' W 117°31'612.8
2017-Nov-27 16:00N 33°08' W 117°34'  
Track history (hours):
 
Tides and Currents Weather Stations Pressure Air Temp Water Temp Dewpoint Dewpoint Depression Visibility Wind Speed Wind Dir Waves Ship Positions

Nine-0-nine

Owner: Warn, Mike, Aurora, OR. More information available from US FCC via Universal Licensing System and Coast Guard Vessel Documentation Center.

Last reported at 2017-Nov-30 23:54 UTC. Time now 2018-Feb-20 21:36 UTC.
Position N 33°25' W 117°46'.
Warning: this ship's position is months out of date.

Type: Ship. MMSI: 366678000.

Date/timePositionNaut miles runAvg speedWind from/ knotsBaromVisibWave heightAir tempDewpointWater temp
2017-Nov-30 23:54N 33°25' W 117°46'410.9
2017-Nov-30 23:30N 33°21' W 117°44'510.9
2017-Nov-30 23:00N 33°16' W 117°40'510.9
2017-Nov-30 22:30N 33°11' W 117°38'510.8
2017-Nov-30 22:00N 33°07' W 117°34'510.5
2017-Nov-30 21:31N 33°02' W 117°31'610.4
2017-Nov-30 20:58N 32°57' W 117°28'510.4
2017-Nov-30 20:30N 32°53' W 117°26'510.2
2017-Nov-30 20:01N 32°49' W 117°23'  
2017-Nov-27 17:59N 32°45' W 117°20'612.8
2017-Nov-27 17:30N 32°51' W 117°24'712.6
2017-Nov-27 16:59N 32°56' W 117°28'612.7
2017-Nov-27 16:29N 33°02' W 117°31'612.8
2017-Nov-27 16:00N 33°08' W 117°34'  

Dump ship's entire track history